createdAt,value
2019-02-26T00:02:26.070Z,58.30
2019-02-26T00:04:56.109Z,58.30
2019-02-26T00:07:25.217Z,58.80
2019-02-26T00:09:53.566Z,58.40
2019-02-26T00:12:23.850Z,58.50
2019-02-26T00:14:52.918Z,58.40
2019-02-26T00:17:21.748Z,58.50
2019-02-26T00:19:49.231Z,58.40
2019-02-26T00:22:18.271Z,58.00
2019-02-26T00:24:46.691Z,58.20
2019-02-26T00:27:14.564Z,58.20
2019-02-26T00:29:44.163Z,58.00
2019-02-26T00:32:13.812Z,58.00
2019-02-26T00:34:41.196Z,58.10
2019-02-26T00:37:09.115Z,58.10
2019-02-26T00:39:37.039Z,58.00
2019-02-26T00:42:05.168Z,57.80
2019-02-26T00:44:35.418Z,57.90
2019-02-26T00:47:04.948Z,58.20
2019-02-26T00:49:32.557Z,58.10
2019-02-26T00:52:00.324Z,58.20
2019-02-26T00:54:29.211Z,58.10
2019-02-26T00:56:59.330Z,58.20
2019-02-26T00:59:27.887Z,58.20
2019-02-26T01:01:57.056Z,58.20
2019-02-26T01:04:25.193Z,58.50
2019-02-26T01:06:52.442Z,58.50
2019-02-26T01:09:20.459Z,58.60
2019-02-26T01:11:48.145Z,58.50
2019-02-26T01:14:18.585Z,58.50
2019-02-26T01:16:48.310Z,58.70
2019-02-26T01:19:17.512Z,58.50
2019-02-26T01:21:45.392Z,58.30
2019-02-26T01:24:12.244Z,58.20
2019-02-26T01:26:42.540Z,58.40
2019-02-26T01:29:09.130Z,58.70
2019-02-26T01:31:38.412Z,58.60
2019-02-26T01:34:05.424Z,58.60
2019-02-26T01:36:33.839Z,58.50
2019-02-26T01:39:00.848Z,58.50
2019-02-26T01:41:28.115Z,58.30
2019-02-26T01:43:55.139Z,58.20
2019-02-26T01:46:22.224Z,58.30
2019-02-26T01:48:49.355Z,58.60
2019-02-26T01:51:19.462Z,58.80
2019-02-26T01:53:49.808Z,58.60
2019-02-26T01:56:19.821Z,58.60
2019-02-26T01:58:56.134Z,58.70
2019-02-26T02:01:19.242Z,58.70
2019-02-26T02:03:48.809Z,58.50
2019-02-26T02:06:18.153Z,59.00
2019-02-26T02:08:48.261Z,59.00
2019-02-26T02:11:17.031Z,58.90
2019-02-26T02:13:44.791Z,59.00
2019-02-26T02:16:13.417Z,59.10
2019-02-26T02:18:43.769Z,58.80
2019-02-26T02:21:10.425Z,59.00
2019-02-26T02:23:38.319Z,59.50
2019-02-26T02:26:07.142Z,59.40
2019-02-26T02:28:35.651Z,59.20
2019-02-26T02:31:04.299Z,59.20
2019-02-26T02:33:34.928Z,59.30
2019-02-26T02:36:02.083Z,59.30
2019-02-26T02:38:29.327Z,59.40
2019-02-26T02:40:56.719Z,59.50
2019-02-26T02:43:23.733Z,59.50
2019-02-26T02:45:53.174Z,59.50
2019-02-26T02:48:22.042Z,59.50
2019-02-26T02:50:49.127Z,59.20
2019-02-26T02:53:20.439Z,59.10
2019-02-26T02:55:48.869Z,59.20
2019-02-26T02:58:18.153Z,59.30
2019-02-26T03:00:46.119Z,59.60
2019-02-26T03:03:13.894Z,59.50
2019-02-26T03:05:43.820Z,59.40
2019-02-26T03:08:11.591Z,59.90
2019-02-26T03:10:42.355Z,59.60
2019-02-26T03:13:08.633Z,59.60
2019-02-26T03:15:37.015Z,59.60
2019-02-26T03:18:06.674Z,59.70
2019-02-26T03:20:37.267Z,60.30
2019-02-26T03:23:04.580Z,59.60
2019-02-26T03:25:32.327Z,59.40
2019-02-26T03:27:59.482Z,59.70
2019-02-26T03:30:32.962Z,59.90
2019-02-26T03:33:00.244Z,59.70
2019-02-26T03:35:26.009Z,59.60
2019-02-26T03:37:55.584Z,59.50
2019-02-26T03:40:24.099Z,59.60
2019-02-26T03:42:52.316Z,59.70
2019-02-26T03:45:23.906Z,59.50
2019-02-26T03:47:50.388Z,59.40
2019-02-26T03:50:19.035Z,59.40
2019-02-26T03:52:45.923Z,59.50
2019-02-26T03:55:15.405Z,59.40
2019-02-26T03:57:46.959Z,59.40
2019-02-26T04:00:14.929Z,59.50
2019-02-26T04:02:45.694Z,59.50
2019-02-26T04:05:12.735Z,60.20
2019-02-26T04:07:41.948Z,59.40
2019-02-26T04:10:09.800Z,59.40
2019-02-26T04:12:41.871Z,59.70
2019-02-26T04:15:09.128Z,59.50
2019-02-26T04:17:37.787Z,59.60
2019-02-26T04:20:06.983Z,59.40
2019-02-26T04:22:35.079Z,59.50
2019-02-26T04:25:11.751Z,59.40
2019-02-26T04:28:08.100Z,59.40
2019-02-26T04:30:55.084Z,59.30
2019-02-26T04:33:56.028Z,59.30
2019-02-26T04:36:45.298Z,59.20
2019-02-26T04:39:47.300Z,59.10
2019-02-26T04:43:07.134Z,59.20
2019-02-26T04:45:57.560Z,59.40
2019-02-26T04:48:29.228Z,59.10
2019-02-26T04:50:58.016Z,59.40
2019-02-26T04:53:25.800Z,59.50
2019-02-26T04:55:54.078Z,59.30
2019-02-26T04:58:23.215Z,59.40
2019-02-26T05:00:52.227Z,59.40
2019-02-26T05:03:20.184Z,59.70
2019-02-26T05:05:51.368Z,59.30
2019-02-26T05:08:17.870Z,59.30
2019-02-26T05:10:46.403Z,59.40
2019-02-26T05:13:15.277Z,59.20
2019-02-26T05:15:43.699Z,58.90
2019-02-26T05:18:11.084Z,59.00
2019-02-26T05:20:42.078Z,58.90
2019-02-26T05:23:08.231Z,58.80
2019-02-26T05:25:39.237Z,58.90
2019-02-26T05:28:06.447Z,59.20
2019-02-26T05:30:34.622Z,59.00
2019-02-26T05:33:03.492Z,59.20
2019-02-26T05:35:31.903Z,59.10
2019-02-26T05:38:01.011Z,59.10
2019-02-26T05:40:28.794Z,59.40
2019-02-26T05:42:56.854Z,59.10
2019-02-26T05:45:26.594Z,58.80
2019-02-26T05:47:58.686Z,59.20
2019-02-26T05:50:24.439Z,59.20
2019-02-26T05:52:57.608Z,59.50
2019-02-26T05:55:23.686Z,60.10
2019-02-26T05:57:51.254Z,60.20
2019-02-26T06:00:22.647Z,60.00
2019-02-26T06:02:50.859Z,60.10
2019-02-26T06:05:18.375Z,60.20
2019-02-26T06:07:46.822Z,60.40
2019-02-26T06:10:15.335Z,60.30
2019-02-26T06:12:44.642Z,60.40
2019-02-26T06:15:12.507Z,60.70
2019-02-26T06:17:43.067Z,61.10
2019-02-26T06:20:13.379Z,61.20
2019-02-26T06:22:40.639Z,61.00
2019-02-26T06:25:13.930Z,61.00
2019-02-26T06:27:37.538Z,61.20
2019-02-26T06:30:11.546Z,61.50
2019-02-26T06:32:39.694Z,61.20
2019-02-26T06:35:10.852Z,61.00
2019-02-26T06:37:38.525Z,61.10
2019-02-26T06:40:08.203Z,61.50
2019-02-26T06:42:35.551Z,61.70
2019-02-26T06:45:06.472Z,61.90
2019-02-26T06:47:33.922Z,62.10
2019-02-26T06:50:05.570Z,61.90
2019-02-26T06:52:37.137Z,61.90
2019-02-26T06:55:05.947Z,62.10
2019-02-26T06:57:33.953Z,62.00
2019-02-26T07:00:04.284Z,62.40
2019-02-26T07:02:32.308Z,63.00
2019-02-26T07:04:59.172Z,62.90
2019-02-26T07:07:27.259Z,62.90
2019-02-26T07:09:57.497Z,62.90
2019-02-26T07:12:24.741Z,62.90
2019-02-26T07:14:53.515Z,63.20
2019-02-26T07:17:22.968Z,63.30
2019-02-26T07:19:53.853Z,63.40
2019-02-26T07:22:20.787Z,63.70
2019-02-26T07:24:51.970Z,63.70
2019-02-26T07:27:20.627Z,63.70
2019-02-26T07:29:52.162Z,63.90
2019-02-26T07:32:20.233Z,64.10
2019-02-26T07:34:51.638Z,64.30
2019-02-26T07:37:19.066Z,64.20
2019-02-26T07:39:47.178Z,63.70
2019-02-26T07:42:18.889Z,63.70
2019-02-26T07:44:47.627Z,63.70
2019-02-26T07:47:17.031Z,63.80
2019-02-26T07:49:43.887Z,63.70
2019-02-26T07:52:11.278Z,63.60
2019-02-26T07:54:40.497Z,63.90
2019-02-26T07:57:08.192Z,64.00
2019-02-26T07:59:37.023Z,64.10
2019-02-26T08:02:06.350Z,63.80
2019-02-26T08:04:36.342Z,63.60
2019-02-26T08:07:04.955Z,63.40
2019-02-26T08:09:33.551Z,63.30
2019-02-26T08:12:03.841Z,63.10
2019-02-26T08:14:30.931Z,61.70
2019-02-26T08:16:59.550Z,61.30
2019-02-26T08:19:29.783Z,60.80
2019-02-26T08:21:57.192Z,61.80
2019-02-26T08:24:24.703Z,60.60
2019-02-26T08:26:51.766Z,60.20
2019-02-26T08:29:20.403Z,59.30
2019-02-26T08:31:49.533Z,58.20
2019-02-26T08:34:17.556Z,58.30
2019-02-26T08:36:46.926Z,58.10
2019-02-26T08:39:15.649Z,58.00
2019-02-26T08:42:01.359Z,57.90
2019-02-26T08:44:29.661Z,57.70
2019-02-26T08:46:58.671Z,57.60
2019-02-26T08:49:25.731Z,57.30
2019-02-26T08:51:53.948Z,56.90
2019-02-26T08:54:23.731Z,56.40
2019-02-26T08:56:51.476Z,56.60
2019-02-26T08:59:20.155Z,56.40
2019-02-26T09:01:49.199Z,55.90
2019-02-26T09:04:17.517Z,56.20
2019-02-26T09:06:46.243Z,56.50
2019-02-26T09:09:14.100Z,55.80
2019-02-26T09:11:41.083Z,56.20
2019-02-26T09:14:11.143Z,56.30
2019-02-26T09:16:39.016Z,56.80
2019-02-26T09:19:06.835Z,56.10
2019-02-26T09:21:36.907Z,56.00
2019-02-26T09:24:07.118Z,55.90
2019-02-26T09:26:33.939Z,56.10
2019-02-26T09:29:01.192Z,56.10
2019-02-26T09:31:28.180Z,56.00
2019-02-26T09:33:55.782Z,56.00
2019-02-26T09:36:23.647Z,56.00
2019-02-26T09:38:52.719Z,56.10
2019-02-26T09:41:21.450Z,55.90
2019-02-26T09:43:48.796Z,55.90
2019-02-26T09:46:18.382Z,55.90
2019-02-26T09:48:46.014Z,55.90
2019-02-26T09:51:14.771Z,55.70
2019-02-26T09:53:44.196Z,55.60
2019-02-26T09:56:11.664Z,55.30
2019-02-26T09:58:40.376Z,55.30
2019-02-26T10:01:10.987Z,55.00
2019-02-26T10:03:39.572Z,54.70
2019-02-26T10:06:08.664Z,54.70
2019-02-26T10:08:37.144Z,54.70
2019-02-26T10:11:04.869Z,54.40
2019-02-26T10:13:32.955Z,54.40
2019-02-26T10:16:02.040Z,54.30
2019-02-26T10:18:32.800Z,54.30
2019-02-26T10:21:00.030Z,54.30
2019-02-26T10:23:29.055Z,54.20
2019-02-26T10:26:00.304Z,54.20
2019-02-26T10:28:27.299Z,54.00
2019-02-26T10:30:56.588Z,54.10
2019-02-26T10:33:24.106Z,54.00
2019-02-26T10:35:51.588Z,54.00
2019-02-26T10:38:20.607Z,54.00
2019-02-26T10:40:53.782Z,53.90
2019-02-26T10:43:18.824Z,53.90
2019-02-26T10:45:47.574Z,53.80
2019-02-26T10:48:19.005Z,54.00
2019-02-26T10:50:48.342Z,53.90
2019-02-26T10:53:19.366Z,53.90
2019-02-26T10:55:44.948Z,54.10
2019-02-26T10:58:13.409Z,54.20
2019-02-26T11:00:41.635Z,54.30
2019-02-26T11:03:11.583Z,54.60
2019-02-26T11:05:41.851Z,54.60
2019-02-26T11:08:09.603Z,54.60
2019-02-26T11:10:41.408Z,54.70
2019-02-26T11:13:06.210Z,54.90
2019-02-26T11:15:36.038Z,55.00
2019-02-26T11:18:03.733Z,55.10
2019-02-26T11:20:34.218Z,55.10
2019-02-26T11:23:04.883Z,55.10
2019-02-26T11:25:31.648Z,55.00
2019-02-26T11:28:00.615Z,54.70
2019-02-26T11:30:32.129Z,54.60
2019-02-26T11:33:02.005Z,54.50
2019-02-26T11:35:27.707Z,54.40
2019-02-26T11:37:57.442Z,54.30
2019-02-26T11:40:29.638Z,54.50
2019-02-26T11:42:56.303Z,54.40
2019-02-26T11:45:24.472Z,54.20
2019-02-26T11:47:51.823Z,54.00
2019-02-26T11:50:19.822Z,53.90
2019-02-26T11:52:51.621Z,53.50
2019-02-26T11:55:18.655Z,52.70
2019-02-26T11:57:49.607Z,52.80
2019-02-26T12:00:25.863Z,52.90
2019-02-26T12:02:54.740Z,53.20
2019-02-26T12:05:30.796Z,53.20
2019-02-26T12:07:53.844Z,53.20
2019-02-26T12:10:21.529Z,53.20
2019-02-26T12:12:51.550Z,52.80
2019-02-26T12:15:19.440Z,52.90
2019-02-26T12:17:49.317Z,52.90
2019-02-26T12:20:19.648Z,53.00
2019-02-26T12:22:49.808Z,53.60
2019-02-26T12:25:17.326Z,52.90
2019-02-26T12:27:47.909Z,53.00
2019-02-26T12:30:18.136Z,52.90
2019-02-26T12:32:47.543Z,53.00
2019-02-26T12:35:17.823Z,53.20
2019-02-26T12:37:47.266Z,53.10
2019-02-26T12:40:15.939Z,53.10
2019-02-26T12:42:43.802Z,53.20
2019-02-26T12:45:13.625Z,53.20
2019-02-26T12:47:42.936Z,53.40
2019-02-26T12:50:13.651Z,53.50
2019-02-26T12:52:44.563Z,53.40
2019-02-26T12:55:12.611Z,53.60
2019-02-26T12:57:39.916Z,53.60
2019-02-26T13:00:13.986Z,53.60
2019-02-26T13:02:43.791Z,53.70
2019-02-26T13:05:14.102Z,53.80
2019-02-26T13:07:42.875Z,53.90
2019-02-26T13:10:16.024Z,54.00
2019-02-26T13:12:47.166Z,53.90
2019-02-26T13:15:19.032Z,54.00
2019-02-26T13:17:44.589Z,54.30
2019-02-26T13:20:14.831Z,54.20
2019-02-26T13:22:45.744Z,54.20
2019-02-26T13:25:17.493Z,54.90
2019-02-26T13:27:43.779Z,54.40
2019-02-26T13:30:16.687Z,54.40
2019-02-26T13:33:04.771Z,54.60
2019-02-26T13:35:14.805Z,54.70
2019-02-26T13:37:42.903Z,54.70
2019-02-26T13:40:13.624Z,55.20
2019-02-26T13:42:41.952Z,55.10
2019-02-26T13:45:11.723Z,55.00
2019-02-26T13:47:38.863Z,55.10
2019-02-26T13:50:09.208Z,55.20
2019-02-26T13:52:36.171Z,55.20
2019-02-26T13:55:03.873Z,55.20
2019-02-26T13:57:32.013Z,55.40
2019-02-26T13:59:59.087Z,56.00
2019-02-26T14:02:27.892Z,55.30
2019-02-26T14:04:55.719Z,55.40
2019-02-26T14:07:24.035Z,55.60
2019-02-26T14:09:51.104Z,55.60
2019-02-26T14:12:19.076Z,55.60
2019-02-26T14:14:46.156Z,55.70
2019-02-26T14:17:13.451Z,55.80
2019-02-26T14:19:41.915Z,56.00
2019-02-26T14:22:10.547Z,55.90
2019-02-26T14:24:38.700Z,55.80
2019-02-26T14:27:05.944Z,55.80
2019-02-26T14:29:32.927Z,56.00
2019-02-26T14:32:00.072Z,56.00
2019-02-26T14:34:27.354Z,55.90
2019-02-26T14:36:55.795Z,55.90
2019-02-26T14:39:23.875Z,55.80
2019-02-26T14:41:51.320Z,55.70
2019-02-26T14:44:18.583Z,55.60
2019-02-26T14:46:45.564Z,55.70
2019-02-26T14:49:12.538Z,55.60
2019-02-26T14:51:40.882Z,55.60
2019-02-26T14:54:07.903Z,55.70
2019-02-26T14:56:35.836Z,55.70
2019-02-26T14:59:03.297Z,55.80
2019-02-26T15:01:30.780Z,55.90
2019-02-26T15:03:58.520Z,56.00
2019-02-26T15:06:26.240Z,55.90
2019-02-26T15:08:53.819Z,55.80
2019-02-26T15:11:20.911Z,56.00
2019-02-26T15:13:48.188Z,56.00
2019-02-26T15:16:15.397Z,55.80
2019-02-26T15:18:43.487Z,55.70
2019-02-26T15:21:10.659Z,55.80
2019-02-26T15:23:37.640Z,55.80
2019-02-26T15:26:05.127Z,55.80
2019-02-26T15:28:32.348Z,55.70
2019-02-26T15:30:59.557Z,55.90
2019-02-26T15:33:26.639Z,55.60
2019-02-26T15:35:54.115Z,55.80
2019-02-26T15:38:21.063Z,55.80
2019-02-26T15:40:48.077Z,55.60
2019-02-26T15:43:15.499Z,55.80
2019-02-26T15:45:51.580Z,56.00
2019-02-26T15:48:12.643Z,56.00
2019-02-26T15:50:40.406Z,55.90
2019-02-26T15:53:07.741Z,55.90
2019-02-26T15:55:34.844Z,56.30
2019-02-26T15:58:04.369Z,56.50
2019-02-26T16:00:32.207Z,57.20
2019-02-26T16:03:00.006Z,56.90
2019-02-26T16:05:27.248Z,57.20
2019-02-26T16:07:55.727Z,57.30
2019-02-26T16:10:23.167Z,57.70
2019-02-26T16:12:51.687Z,57.90
2019-02-26T16:15:19.081Z,58.30
2019-02-26T16:17:47.149Z,58.50
2019-02-26T16:20:17.206Z,58.70
2019-02-26T16:22:45.343Z,59.40
2019-02-26T16:25:12.728Z,59.00
2019-02-26T16:27:40.275Z,59.30
2019-02-26T16:30:16.312Z,59.70
2019-02-26T16:32:43.852Z,60.00
2019-02-26T16:35:11.592Z,60.30
2019-02-26T16:37:41.367Z,60.50
2019-02-26T16:40:08.200Z,60.80
2019-02-26T16:42:35.448Z,61.20
2019-02-26T16:45:02.676Z,61.20
2019-02-26T16:47:30.780Z,61.00
2019-02-26T16:49:58.670Z,61.10
2019-02-26T16:52:27.748Z,61.40
2019-02-26T16:54:55.791Z,61.20
2019-02-26T16:57:22.936Z,61.40
2019-02-26T16:59:50.124Z,61.40
2019-02-26T17:02:19.236Z,61.40
2019-02-26T17:04:48.283Z,61.20
2019-02-26T17:07:16.327Z,61.40
2019-02-26T17:09:44.975Z,61.20
2019-02-26T17:12:11.968Z,60.60
2019-02-26T17:14:39.880Z,60.50
2019-02-26T17:17:07.549Z,60.20
2019-02-26T17:19:34.831Z,60.00
2019-02-26T17:22:04.538Z,59.70
2019-02-26T17:24:32.709Z,59.80
2019-02-26T17:27:00.676Z,60.00
2019-02-26T17:29:28.128Z,60.20
2019-02-26T17:31:54.964Z,60.10
2019-02-26T17:34:23.528Z,60.00
2019-02-26T17:36:51.553Z,59.90
2019-02-26T17:39:20.257Z,60.00
2019-02-26T17:41:48.407Z,60.00
2019-02-26T17:44:15.967Z,59.90
2019-02-26T17:46:44.551Z,59.80
2019-02-26T17:49:12.232Z,59.40
2019-02-26T17:51:39.819Z,59.30
2019-02-26T17:54:08.181Z,59.40
2019-02-26T17:56:35.455Z,59.50
2019-02-26T17:59:02.616Z,59.40
2019-02-26T18:01:29.827Z,59.40
2019-02-26T18:03:57.456Z,59.60
2019-02-26T18:06:24.379Z,59.70
2019-02-26T18:08:52.039Z,59.70
2019-02-26T18:11:20.876Z,59.80
2019-02-26T18:13:48.379Z,59.80
2019-02-26T18:16:15.583Z,59.50
2019-02-26T18:18:43.015Z,59.40
2019-02-26T18:21:10.852Z,59.30
2019-02-26T18:23:39.059Z,59.50
2019-02-26T18:26:06.363Z,59.30
2019-02-26T18:28:36.808Z,59.10
2019-02-26T18:31:04.228Z,59.20
2019-02-26T18:33:35.446Z,59.40
2019-02-26T18:36:02.675Z,59.00
2019-02-26T18:38:31.095Z,58.90
2019-02-26T18:41:00.781Z,58.60
2019-02-26T18:43:27.833Z,58.60
2019-02-26T18:45:55.331Z,58.40
2019-02-26T18:48:22.623Z,58.20
2019-02-26T18:50:50.399Z,57.70
2019-02-26T18:53:18.308Z,57.20
2019-02-26T18:55:45.455Z,57.10
2019-02-26T18:58:16.166Z,56.60
2019-02-26T19:00:42.728Z,56.20
2019-02-26T19:03:10.019Z,55.60
2019-02-26T19:05:38.771Z,55.10
2019-02-26T19:08:06.542Z,54.80
2019-02-26T19:10:34.488Z,54.60
2019-02-26T19:13:02.753Z,54.50
2019-02-26T19:15:31.485Z,54.10
2019-02-26T19:18:02.745Z,53.90
2019-02-26T19:20:29.755Z,53.50
2019-02-26T19:22:58.762Z,53.00
2019-02-26T19:25:28.066Z,52.80
2019-02-26T19:27:56.993Z,52.80
2019-02-26T19:30:25.288Z,52.80
2019-02-26T19:32:52.399Z,52.80
2019-02-26T19:35:20.458Z,52.90
2019-02-26T19:37:50.066Z,53.10
2019-02-26T19:40:18.836Z,53.00
2019-02-26T19:42:47.395Z,52.90
2019-02-26T19:45:15.636Z,52.90
2019-02-26T19:47:43.216Z,52.90
2019-02-26T19:50:11.945Z,52.70
2019-02-26T19:52:40.270Z,52.70
2019-02-26T19:55:12.884Z,52.80
2019-02-26T19:57:41.712Z,52.60
2019-02-26T20:00:11.501Z,52.60
2019-02-26T20:02:38.710Z,52.80
2019-02-26T20:05:09.500Z,52.90
2019-02-26T20:07:37.343Z,52.80
2019-02-26T20:10:05.220Z,52.80
2019-02-26T20:12:32.235Z,52.60
2019-02-26T20:14:59.304Z,52.50
2019-02-26T20:17:28.362Z,52.40
2019-02-26T20:19:55.544Z,52.20
2019-02-26T20:22:25.350Z,52.00
2019-02-26T20:24:52.560Z,51.80
2019-02-26T20:27:21.911Z,51.50
2019-02-26T20:29:48.814Z,51.80
2019-02-26T20:32:18.220Z,51.60
2019-02-26T20:34:46.224Z,51.50
2019-02-26T20:37:13.476Z,51.20
2019-02-26T20:39:41.673Z,51.00
2019-02-26T20:42:10.572Z,50.70
2019-02-26T20:44:37.757Z,50.30
2019-02-26T20:47:05.218Z,49.90
2019-02-26T20:49:32.340Z,49.50
2019-02-26T20:52:01.483Z,49.20
2019-02-26T20:54:30.468Z,48.50
2019-02-26T20:56:58.830Z,47.80
2019-02-26T20:59:26.897Z,47.90
2019-02-26T21:01:55.069Z,47.40
2019-02-26T21:04:22.659Z,47.10
2019-02-26T21:06:50.848Z,47.00
2019-02-26T21:09:19.564Z,46.70
2019-02-26T21:11:46.537Z,46.30
2019-02-26T21:14:13.612Z,46.60
2019-02-26T21:16:40.887Z,46.30
2019-02-26T21:19:08.047Z,46.40
2019-02-26T21:21:35.838Z,46.40
2019-02-26T21:24:02.985Z,47.00
2019-02-26T21:26:30.084Z,46.00
2019-02-26T21:28:57.904Z,46.00
2019-02-26T21:31:25.184Z,45.70
2019-02-26T21:33:52.500Z,45.40
2019-02-26T21:36:19.691Z,45.40
2019-02-26T21:38:46.576Z,45.40
2019-02-26T21:41:13.639Z,45.00
2019-02-26T21:43:40.697Z,43.80
2019-02-26T21:46:07.699Z,43.40
2019-02-26T21:48:36.802Z,43.50
2019-02-26T21:51:03.596Z,43.60
2019-02-26T21:53:31.507Z,43.50
2019-02-26T21:55:58.537Z,43.40
2019-02-26T21:58:26.920Z,42.90
2019-02-26T22:00:54.531Z,43.40
2019-02-26T22:03:24.563Z,43.50
2019-02-26T22:05:50.792Z,43.60
2019-02-26T22:08:17.807Z,43.50
2019-02-26T22:10:45.071Z,43.60
2019-02-26T22:13:12.567Z,43.30
2019-02-26T22:15:42.080Z,43.80
2019-02-26T22:18:10.100Z,42.80
2019-02-26T22:20:37.948Z,43.30
2019-02-26T22:23:05.852Z,43.10
2019-02-26T22:25:33.316Z,42.90
2019-02-26T22:28:00.327Z,43.00
2019-02-26T22:30:27.947Z,43.00
2019-02-26T22:32:55.871Z,43.70
2019-02-26T22:35:25.584Z,43.70
2019-02-26T22:37:51.741Z,43.10
2019-02-26T22:40:18.747Z,43.50
2019-02-26T22:42:45.736Z,43.40
2019-02-26T22:45:13.127Z,43.00
2019-02-26T22:47:41.510Z,43.10
2019-02-26T22:50:10.819Z,43.50
2019-02-26T22:52:39.841Z,43.90
2019-02-26T22:55:07.504Z,43.70
2019-02-26T22:57:35.735Z,43.90
2019-02-26T23:00:15.945Z,43.50
2019-02-26T23:02:44.084Z,43.20
2019-02-26T23:05:11.185Z,43.10
2019-02-26T23:07:39.393Z,43.50
2019-02-26T23:10:07.452Z,43.10
2019-02-26T23:12:35.135Z,43.10
2019-02-26T23:15:02.641Z,42.80
2019-02-26T23:17:29.996Z,42.70
2019-02-26T23:19:57.505Z,42.90
2019-02-26T23:22:24.600Z,42.70
2019-02-26T23:24:51.705Z,42.50
2019-02-26T23:27:18.903Z,43.10
2019-02-26T23:29:46.031Z,43.20
2019-02-26T23:32:14.583Z,43.10
2019-02-26T23:34:42.180Z,43.10
2019-02-26T23:37:09.461Z,43.40
2019-02-26T23:39:36.755Z,44.10
2019-02-26T23:42:06.135Z,44.00
2019-02-26T23:44:34.527Z,43.90
2019-02-26T23:47:03.268Z,44.20
2019-02-26T23:49:30.403Z,44.00
2019-02-26T23:51:58.328Z,44.00
2019-02-26T23:54:25.699Z,44.00
2019-02-26T23:56:52.831Z,44.00
2019-02-26T23:59:19.928Z,43.70
